Terminal Aerodrome Forecast
Issued by NWS Pendleton, OR

Home | Current Version | Previous Version | Text Only | Print | Product List | Glossary On
Versions: 1 2 3 4 5 6 7 8 9 10 11 12 13 14 15 16 17 18 19 20 21
375
FTUS46 KPDT 200541
TAFPDT
TAF
KPDT 200541Z 2006/2106 13006KT P6SM BKN090
     FM201700 10006KT P6SM -RASN BKN045 OVC090
     FM210000 08005KT P6SM VCSH BKN040 OVC080=

USA.gov is the U.S. government's official web portal to all federal, state and local government web resources and services.